createdAt,value
2023-05-03T00:04:41.490Z,8.86
2023-05-03T00:14:44.435Z,8.67
2023-05-03T00:24:49.503Z,8.32
2023-05-03T00:34:54.862Z,8.45
2023-05-03T00:44:59.496Z,8.16
2023-05-03T00:55:02.945Z,8.23
2023-05-03T01:05:08.481Z,8.03
2023-05-03T01:15:18.270Z,7.96
2023-05-03T01:25:22.828Z,7.80
2023-05-03T01:35:31.532Z,7.80
2023-05-03T01:45:36.303Z,7.57
2023-05-03T01:55:39.855Z,7.33
2023-05-03T02:05:44.342Z,7.42
2023-05-03T02:15:47.333Z,7.27
2023-05-03T02:25:51.549Z,7.18
2023-05-03T02:35:54.847Z,7.05
2023-05-03T02:45:59.070Z,6.96
2023-05-03T02:56:02.968Z,6.79
2023-05-03T03:06:08.249Z,6.57
2023-05-03T03:16:12.073Z,6.49
2023-05-03T03:26:16.944Z,6.56
2023-05-03T03:36:20.132Z,6.31
2023-05-03T03:46:26.548Z,6.32
2023-05-03T03:56:32.529Z,6.24
2023-05-03T04:06:37.793Z,6.10
2023-05-03T04:16:44.657Z,6.06
2023-05-03T04:26:51.366Z,5.90
2023-05-03T04:37:01.717Z,6.05
2023-05-03T04:47:06.539Z,6.00
2023-05-03T04:57:10.551Z,5.60
2023-05-03T05:07:15.238Z,5.41
2023-05-03T05:17:21.967Z,5.89
2023-05-03T05:27:28.339Z,6.42
2023-05-03T05:37:34.906Z,6.77
2023-05-03T05:47:42.269Z,6.87
2023-05-03T05:57:46.211Z,7.17
2023-05-03T06:07:52.430Z,7.58
2023-05-03T06:17:56.354Z,7.91
2023-05-03T06:28:01.747Z,7.96
2023-05-03T06:38:08.114Z,8.51
2023-05-03T06:48:12.507Z,9.10
2023-05-03T06:58:16.719Z,9.23
2023-05-03T07:08:20.957Z,9.38
2023-05-03T07:18:24.005Z,9.60
2023-05-03T07:28:28.446Z,9.74
2023-05-03T07:38:50.406Z,10.28
2023-05-03T07:48:54.655Z,10.89
2023-05-03T07:59:08.335Z,11.47
2023-05-03T08:09:14.188Z,11.34
2023-05-03T08:19:16.917Z,11.54
2023-05-03T08:29:21.249Z,11.88
2023-05-03T08:39:24.740Z,12.20
2023-05-03T08:49:30.666Z,12.05
2023-05-03T08:59:33.939Z,12.59
2023-05-03T09:09:38.464Z,13.17
2023-05-03T09:19:51.461Z,12.56
2023-05-03T09:29:56.817Z,13.29
2023-05-03T09:40:07.810Z,13.56
2023-05-03T09:50:12.312Z,13.73
2023-05-03T10:00:16.853Z,14.12
2023-05-03T10:10:22.296Z,14.39
2023-05-03T10:20:31.796Z,14.70
2023-05-03T10:30:38.795Z,14.82
2023-05-03T10:40:44.938Z,14.54
2023-05-03T10:50:50.218Z,14.94
2023-05-03T11:00:53.097Z,15.36
2023-05-03T11:11:02.505Z,15.51
2023-05-03T11:21:24.803Z,16.06
2023-05-03T11:31:29.479Z,16.23
2023-05-03T11:41:33.010Z,16.54
2023-05-03T11:51:37.462Z,16.45
2023-05-03T12:01:40.687Z,16.76
2023-05-03T12:11:47.689Z,16.65
2023-05-03T12:22:04.596Z,17.46
2023-05-03T12:32:17.351Z,17.51
2023-05-03T12:42:22.157Z,17.69
2023-05-03T13:12:41.225Z,17.66
2023-05-03T13:22:45.221Z,18.10
2023-05-03T13:32:49.894Z,17.96
2023-05-03T13:42:53.389Z,18.23
2023-05-03T13:52:57.771Z,17.84
2023-05-03T14:03:00.982Z,17.81
2023-05-03T14:13:05.502Z,18.00
2023-05-03T14:23:08.689Z,17.74
2023-05-03T14:33:13.585Z,17.85
2023-05-03T14:43:17.930Z,17.69
2023-05-03T14:53:22.730Z,17.86
2023-05-03T15:03:27.459Z,18.01
2023-05-03T15:13:32.412Z,17.99
2023-05-03T15:23:35.274Z,18.01
2023-05-03T15:33:43.109Z,17.92
2023-05-03T15:43:46.789Z,18.09
2023-05-03T15:53:52.647Z,18.01
2023-05-03T16:03:56.872Z,17.95
2023-05-03T16:14:01.239Z,17.92
2023-05-03T16:24:04.898Z,17.91
2023-05-03T16:34:09.174Z,18.11
2023-05-03T16:44:12.487Z,18.04
2023-05-03T16:54:16.985Z,18.06
2023-05-03T17:04:19.921Z,18.06
2023-05-03T17:14:24.692Z,17.97
2023-05-03T17:24:28.651Z,18.00
2023-05-03T17:34:33.449Z,18.00
2023-05-03T17:44:36.880Z,17.94
2023-05-03T17:54:41.780Z,17.94
2023-05-03T18:04:44.877Z,17.82
2023-05-03T18:14:50.606Z,17.84
2023-05-03T18:24:55.342Z,17.65
2023-05-03T18:35:00.838Z,17.56
2023-05-03T18:45:04.621Z,17.45
2023-05-03T18:55:09.759Z,17.05
2023-05-03T19:05:14.198Z,16.86
2023-05-03T19:15:18.841Z,16.70
2023-05-03T19:25:21.845Z,16.50
2023-05-03T19:35:26.661Z,16.31
2023-05-03T19:45:29.513Z,16.15
2023-05-03T19:55:33.730Z,16.12
2023-05-03T20:05:36.586Z,15.84
2023-05-03T20:15:41.474Z,15.61
2023-05-03T20:25:45.307Z,15.27
2023-05-03T20:35:50.874Z,15.15
2023-05-03T20:45:54.237Z,14.99
2023-05-03T20:56:01.668Z,14.82
2023-05-03T21:06:05.555Z,14.78
2023-05-03T21:16:10.392Z,14.14
2023-05-03T21:26:13.559Z,13.93
2023-05-03T21:36:17.812Z,13.79
2023-05-03T21:46:20.812Z,14.00
2023-05-03T21:56:25.172Z,13.72
2023-05-03T22:06:28.129Z,13.56
2023-05-03T22:16:32.966Z,13.44
2023-05-03T22:26:36.291Z,13.39
2023-05-03T22:36:40.891Z,13.19
2023-05-03T22:46:43.778Z,13.01
2023-05-03T22:56:48.031Z,12.82
2023-05-03T23:06:51.269Z,12.52
2023-05-03T23:16:55.672Z,12.40
2023-05-03T23:26:58.676Z,12.41
2023-05-03T23:37:03.566Z,12.29
2023-05-03T23:47:06.878Z,12.21
2023-05-03T23:57:11.880Z,12.02
